Kezdőlap
METAR-TAF:

METAR-TAF

Repülőterek :

Kulusuk, Grönland

földrajzi szélesség: 65-35N, földrajzi hosszúság: 037-09W, magasság: 35 m

Jelenlegi meteorológiai megfigyelések

A jelentés 21 perccel ezelõtt készült, 17:50 UTC
Nyugati szél 9 kt
Hőmérséklet 7°C
Páratartalom 66%
Légköri nyomás 1013 hPa
Látótávolság 10 km, vagy több

METAR: BGKK 181750Z AUTO 26009KT 9999NDV NCD 07/01 Q1013

Idő: 16:11 (18:11 UTC)

Előrejelzés

A jelentés 56 perccel ezelõtt készült, 17:15 UTC
Az előrejelzés 18-én 18 óra UTC és 19-én 02 óra UTC között érvényes
Nyugat-délnyugati szél 8 kt
Látótávolság 10 km, vagy több
Kevés felhő 20000 lábon
Valószínűség 40%
18-én 23 óra UTC és 19-én 02 óra UTC között
Látótávolság: 0400 m
100 lábon
ködfoltok

TAF: BGKK 181715Z 1818/1902 25008KT 9999 FEW200 PROB40 1823/1902 0400 BCFG VV001

Meteorológiai megfigyelések és előrejelzések több, mint 4000 repülőtéren (METAR és TAF jelentéseket).

A térképen piros és sárga pontok jelzik az elérhető meteorológiai állomásokat.

Mozgassa az egeret a pont fölött, hogy megjelenjen az állomás neve.

Azután kattintson az időjárási megfigyelések és előrejelzések megtekintéséhez.

A térkép megváltoztatása: kattintson a fekete keresztel jelölt zöld gombra ráközelítéshez, a vonallal jelölt zöld gombra távolításhoz, vagy a zöld nyilakra a szomszédos térképek eléréséhez.


METAR-TAF: